sensor_id;sensor_type;location;lat;lon;timestamp;P1;durP1;ratioP1;P2;durP2;ratioP2
6693;SDS011;3384;42.628;23.380;2022-12-07T00:01:07;37.80;;;22.47;;
6693;SDS011;3384;42.628;23.380;2022-12-07T00:03:35;41.73;;;22.00;;
6693;SDS011;3384;42.628;23.380;2022-12-07T00:06:03;37.13;;;20.23;;
6693;SDS011;3384;42.628;23.380;2022-12-07T00:08:31;38.00;;;19.90;;
6693;SDS011;3384;42.628;23.380;2022-12-07T00:11:00;45.33;;;23.90;;
6693;SDS011;3384;42.628;23.380;2022-12-07T00:13:28;44.50;;;21.30;;
6693;SDS011;3384;42.628;23.380;2022-12-07T00:15:55;36.30;;;20.17;;
6693;SDS011;3384;42.628;23.380;2022-12-07T00:18:23;48.60;;;23.47;;
6693;SDS011;3384;42.628;23.380;2022-12-07T00:20:50;43.13;;;22.43;;
6693;SDS011;3384;42.628;23.380;2022-12-07T00:23:16;29.87;;;20.50;;
6693;SDS011;3384;42.628;23.380;2022-12-07T00:25:43;41.90;;;19.53;;
6693;SDS011;3384;42.628;23.380;2022-12-07T00:28:10;47.70;;;22.30;;
6693;SDS011;3384;42.628;23.380;2022-12-07T00:30:37;38.73;;;19.90;;
6693;SDS011;3384;42.628;23.380;2022-12-07T00:33:04;35.80;;;18.40;;
6693;SDS011;3384;42.628;23.380;2022-12-07T00:35:32;30.50;;;16.63;;
6693;SDS011;3384;42.628;23.380;2022-12-07T00:37:59;33.13;;;16.67;;
6693;SDS011;3384;42.628;23.380;2022-12-07T00:40:25;29.57;;;16.10;;
6693;SDS011;3384;42.628;23.380;2022-12-07T00:42:52;25.93;;;16.90;;
6693;SDS011;3384;42.628;23.380;2022-12-07T00:45:19;22.80;;;15.10;;
6693;SDS011;3384;42.628;23.380;2022-12-07T00:47:46;23.77;;;14.40;;
6693;SDS011;3384;42.628;23.380;2022-12-07T00:50:13;22.07;;;15.20;;
6693;SDS011;3384;42.628;23.380;2022-12-07T00:52:41;27.40;;;16.87;;
6693;SDS011;3384;42.628;23.380;2022-12-07T00:55:08;25.57;;;15.63;;
6693;SDS011;3384;42.628;23.380;2022-12-07T00:57:34;35.00;;;18.60;;
6693;SDS011;3384;42.628;23.380;2022-12-07T01:00:01;30.60;;;18.83;;
6693;SDS011;3384;42.628;23.380;2022-12-07T01:02:29;28.27;;;17.43;;
6693;SDS011;3384;42.628;23.380;2022-12-07T01:04:55;25.53;;;16.07;;
6693;SDS011;3384;42.628;23.380;2022-12-07T01:07:22;29.93;;;16.37;;
6693;SDS011;3384;42.628;23.380;2022-12-07T01:09:51;32.53;;;15.43;;
6693;SDS011;3384;42.628;23.380;2022-12-07T01:12:17;25.80;;;15.97;;
6693;SDS011;3384;42.628;23.380;2022-12-07T01:14:44;29.37;;;16.03;;
6693;SDS011;3384;42.628;23.380;2022-12-07T01:17:11;32.67;;;19.00;;
6693;SDS011;3384;42.628;23.380;2022-12-07T01:19:38;31.03;;;17.50;;
6693;SDS011;3384;42.628;23.380;2022-12-07T01:22:05;29.80;;;18.13;;
6693;SDS011;3384;42.628;23.380;2022-12-07T01:24:31;31.87;;;18.10;;
6693;SDS011;3384;42.628;23.380;2022-12-07T01:27:00;33.00;;;21.07;;
6693;SDS011;3384;42.628;23.380;2022-12-07T01:29:26;37.00;;;19.33;;
6693;SDS011;3384;42.628;23.380;2022-12-07T01:31:53;36.40;;;19.93;;
6693;SDS011;3384;42.628;23.380;2022-12-07T01:34:20;37.40;;;19.13;;
6693;SDS011;3384;42.628;23.380;2022-12-07T01:36:47;40.27;;;18.60;;
6693;SDS011;3384;42.628;23.380;2022-12-07T01:39:14;36.47;;;20.10;;
6693;SDS011;3384;42.628;23.380;2022-12-07T01:41:41;28.27;;;17.37;;
6693;SDS011;3384;42.628;23.380;2022-12-07T01:46:55;30.77;;;17.70;;
6693;SDS011;3384;42.628;23.380;2022-12-07T01:49:26;37.63;;;19.73;;
6693;SDS011;3384;42.628;23.380;2022-12-07T01:51:58;31.40;;;18.40;;
6693;SDS011;3384;42.628;23.380;2022-12-07T01:54:33;40.73;;;21.30;;
6693;SDS011;3384;42.628;23.380;2022-12-07T01:57:02;41.23;;;22.70;;
6693;SDS011;3384;42.628;23.380;2022-12-07T01:59:33;41.93;;;21.27;;
6693;SDS011;3384;42.628;23.380;2022-12-07T02:02:01;52.43;;;24.00;;
6693;SDS011;3384;42.628;23.380;2022-12-07T02:04:30;48.23;;;25.20;;
6693;SDS011;3384;42.628;23.380;2022-12-07T02:06:58;53.43;;;26.97;;
6693;SDS011;3384;42.628;23.380;2022-12-07T02:09:25;45.50;;;24.33;;
6693;SDS011;3384;42.628;23.380;2022-12-07T02:11:52;44.60;;;25.57;;
6693;SDS011;3384;42.628;23.380;2022-12-07T02:14:20;49.97;;;23.90;;
6693;SDS011;3384;42.628;23.380;2022-12-07T02:16:51;43.20;;;24.00;;
6693;SDS011;3384;42.628;23.380;2022-12-07T02:19:37;55.50;;;26.17;;
6693;SDS011;3384;42.628;23.380;2022-12-07T02:22:30;50.50;;;24.30;;
6693;SDS011;3384;42.628;23.380;2022-12-07T02:25:12;52.47;;;23.77;;
6693;SDS011;3384;42.628;23.380;2022-12-07T02:27:49;54.20;;;23.60;;
6693;SDS011;3384;42.628;23.380;2022-12-07T02:30:24;46.53;;;23.20;;
6693;SDS011;3384;42.628;23.380;2022-12-07T02:32:55;42.93;;;23.83;;
6693;SDS011;3384;42.628;23.380;2022-12-07T02:35:28;47.03;;;23.00;;
6693;SDS011;3384;42.628;23.380;2022-12-07T02:38:01;44.80;;;23.73;;
6693;SDS011;3384;42.628;23.380;2022-12-07T02:40:35;55.93;;;25.10;;
6693;SDS011;3384;42.628;23.380;2022-12-07T02:43:07;42.40;;;22.93;;
6693;SDS011;3384;42.628;23.380;2022-12-07T02:45:40;43.73;;;22.03;;
6693;SDS011;3384;42.628;23.380;2022-12-07T02:48:08;44.33;;;24.23;;
6693;SDS011;3384;42.628;23.380;2022-12-07T02:50:37;49.93;;;24.10;;
6693;SDS011;3384;42.628;23.380;2022-12-07T02:53:04;50.30;;;24.47;;
6693;SDS011;3384;42.628;23.380;2022-12-07T02:55:32;42.83;;;24.10;;
6693;SDS011;3384;42.628;23.380;2022-12-07T02:58:10;45.90;;;24.90;;
6693;SDS011;3384;42.628;23.380;2022-12-07T03:00:50;41.67;;;21.80;;
6693;SDS011;3384;42.628;23.380;2022-12-07T03:03:21;33.07;;;21.07;;
6693;SDS011;3384;42.628;23.380;2022-12-07T03:05:52;50.27;;;22.37;;
6693;SDS011;3384;42.628;23.380;2022-12-07T03:08:31;40.10;;;20.87;;
6693;SDS011;3384;42.628;23.380;2022-12-07T03:11:04;37.63;;;22.40;;
6693;SDS011;3384;42.628;23.380;2022-12-07T03:13:34;47.33;;;20.23;;
6693;SDS011;3384;42.628;23.380;2022-12-07T03:16:10;44.67;;;22.80;;
6693;SDS011;3384;42.628;23.380;2022-12-07T03:18:44;40.83;;;20.40;;
6693;SDS011;3384;42.628;23.380;2022-12-07T03:21:15;39.27;;;20.93;;
6693;SDS011;3384;42.628;23.380;2022-12-07T03:23:45;40.63;;;21.30;;
6693;SDS011;3384;42.628;23.380;2022-12-07T03:26:16;37.57;;;21.90;;
6693;SDS011;3384;42.628;23.380;2022-12-07T03:28:47;37.83;;;19.53;;
6693;SDS011;3384;42.628;23.380;2022-12-07T03:31:19;39.07;;;21.90;;
6693;SDS011;3384;42.628;23.380;2022-12-07T03:33:49;33.60;;;20.30;;
6693;SDS011;3384;42.628;23.380;2022-12-07T03:36:23;37.07;;;21.37;;
6693;SDS011;3384;42.628;23.380;2022-12-07T03:38:55;44.97;;;20.33;;
6693;SDS011;3384;42.628;23.380;2022-12-07T03:41:28;39.63;;;21.73;;
6693;SDS011;3384;42.628;23.380;2022-12-07T03:43:57;36.27;;;19.97;;
6693;SDS011;3384;42.628;23.380;2022-12-07T03:46:29;45.10;;;21.70;;
6693;SDS011;3384;42.628;23.380;2022-12-07T03:49:04;34.10;;;17.90;;
6693;SDS011;3384;42.628;23.380;2022-12-07T03:51:37;37.20;;;19.03;;
6693;SDS011;3384;42.628;23.380;2022-12-07T03:54:11;40.30;;;19.97;;
6693;SDS011;3384;42.628;23.380;2022-12-07T03:56:43;42.80;;;21.87;;
6693;SDS011;3384;42.628;23.380;2022-12-07T03:59:12;36.30;;;20.60;;
6693;SDS011;3384;42.628;23.380;2022-12-07T04:01:42;36.77;;;20.83;;
6693;SDS011;3384;42.628;23.380;2022-12-07T04:04:10;43.37;;;20.93;;
6693;SDS011;3384;42.628;23.380;2022-12-07T04:06:36;36.90;;;18.77;;
6693;SDS011;3384;42.628;23.380;2022-12-07T04:09:03;45.13;;;20.57;;
6693;SDS011;3384;42.628;23.380;2022-12-07T04:11:30;38.90;;;20.30;;
6693;SDS011;3384;42.628;23.380;2022-12-07T04:13:57;48.70;;;21.43;;
6693;SDS011;3384;42.628;23.380;2022-12-07T04:16:42;46.97;;;21.37;;
6693;SDS011;3384;42.628;23.380;2022-12-07T04:19:09;41.67;;;19.37;;
6693;SDS011;3384;42.628;23.380;2022-12-07T04:21:36;30.07;;;18.80;;
6693;SDS011;3384;42.628;23.380;2022-12-07T04:24:03;42.50;;;21.73;;
6693;SDS011;3384;42.628;23.380;2022-12-07T04:26:30;34.93;;;20.00;;
6693;SDS011;3384;42.628;23.380;2022-12-07T04:28:57;37.57;;;20.60;;
6693;SDS011;3384;42.628;23.380;2022-12-07T04:31:24;32.10;;;19.70;;
6693;SDS011;3384;42.628;23.380;2022-12-07T04:33:52;37.30;;;20.17;;
6693;SDS011;3384;42.628;23.380;2022-12-07T04:36:19;37.37;;;20.50;;
6693;SDS011;3384;42.628;23.380;2022-12-07T04:38:46;33.70;;;18.80;;
6693;SDS011;3384;42.628;23.380;2022-12-07T04:41:13;28.40;;;18.20;;
6693;SDS011;3384;42.628;23.380;2022-12-07T04:43:40;38.90;;;19.90;;
6693;SDS011;3384;42.628;23.380;2022-12-07T04:46:07;37.17;;;19.30;;
6693;SDS011;3384;42.628;23.380;2022-12-07T04:48:34;38.47;;;19.50;;
6693;SDS011;3384;42.628;23.380;2022-12-07T04:51:03;42.30;;;20.00;;
6693;SDS011;3384;42.628;23.380;2022-12-07T04:53:30;36.70;;;18.60;;
6693;SDS011;3384;42.628;23.380;2022-12-07T04:55:57;36.83;;;20.30;;
6693;SDS011;3384;42.628;23.380;2022-12-07T04:58:26;36.53;;;17.43;;
6693;SDS011;3384;42.628;23.380;2022-12-07T05:00:53;36.87;;;19.63;;
6693;SDS011;3384;42.628;23.380;2022-12-07T05:03:20;34.60;;;19.93;;
6693;SDS011;3384;42.628;23.380;2022-12-07T05:05:47;34.50;;;20.27;;
6693;SDS011;3384;42.628;23.380;2022-12-07T05:08:15;31.33;;;18.97;;
6693;SDS011;3384;42.628;23.380;2022-12-07T05:10:42;29.10;;;19.00;;
6693;SDS011;3384;42.628;23.380;2022-12-07T05:13:09;28.07;;;17.80;;
6693;SDS011;3384;42.628;23.380;2022-12-07T05:15:36;36.30;;;19.67;;
6693;SDS011;3384;42.628;23.380;2022-12-07T05:18:02;30.70;;;18.70;;
6693;SDS011;3384;42.628;23.380;2022-12-07T05:20:29;33.17;;;18.10;;
6693;SDS011;3384;42.628;23.380;2022-12-07T05:22:56;38.67;;;18.90;;
6693;SDS011;3384;42.628;23.380;2022-12-07T05:25:25;38.40;;;19.07;;
6693;SDS011;3384;42.628;23.380;2022-12-07T05:27:52;52.90;;;21.00;;
6693;SDS011;3384;42.628;23.380;2022-12-07T05:30:19;35.90;;;19.40;;
6693;SDS011;3384;42.628;23.380;2022-12-07T05:32:45;35.90;;;19.40;;
6693;SDS011;3384;42.628;23.380;2022-12-07T05:35:12;38.03;;;21.47;;
6693;SDS011;3384;42.628;23.380;2022-12-07T05:37:39;34.80;;;20.03;;
6693;SDS011;3384;42.628;23.380;2022-12-07T05:40:06;33.43;;;20.63;;
6693;SDS011;3384;42.628;23.380;2022-12-07T05:42:35;32.60;;;19.73;;
6693;SDS011;3384;42.628;23.380;2022-12-07T05:45:06;40.10;;;20.00;;
6693;SDS011;3384;42.628;23.380;2022-12-07T05:47:33;34.73;;;19.67;;
6693;SDS011;3384;42.628;23.380;2022-12-07T05:50:00;46.73;;;21.30;;
6693;SDS011;3384;42.628;23.380;2022-12-07T05:52:27;42.30;;;18.77;;
6693;SDS011;3384;42.628;23.380;2022-12-07T05:54:54;39.00;;;20.27;;
6693;SDS011;3384;42.628;23.380;2022-12-07T05:57:20;32.00;;;17.87;;
6693;SDS011;3384;42.628;23.380;2022-12-07T05:59:49;35.70;;;19.67;;
6693;SDS011;3384;42.628;23.380;2022-12-07T06:02:15;40.33;;;20.00;;
6693;SDS011;3384;42.628;23.380;2022-12-07T06:04:43;36.53;;;19.50;;
6693;SDS011;3384;42.628;23.380;2022-12-07T06:07:11;35.30;;;20.27;;
6693;SDS011;3384;42.628;23.380;2022-12-07T06:09:40;37.07;;;18.40;;
6693;SDS011;3384;42.628;23.380;2022-12-07T06:12:08;29.63;;;18.07;;
6693;SDS011;3384;42.628;23.380;2022-12-07T06:14:54;27.47;;;18.67;;
6693;SDS011;3384;42.628;23.380;2022-12-07T06:17:21;36.50;;;20.37;;
6693;SDS011;3384;42.628;23.380;2022-12-07T06:19:51;33.53;;;17.47;;
6693;SDS011;3384;42.628;23.380;2022-12-07T06:22:18;41.17;;;20.67;;
6693;SDS011;3384;42.628;23.380;2022-12-07T06:24:45;36.90;;;19.80;;
6693;SDS011;3384;42.628;23.380;2022-12-07T06:27:11;39.30;;;18.27;;
6693;SDS011;3384;42.628;23.380;2022-12-07T06:29:38;32.37;;;20.17;;
6693;SDS011;3384;42.628;23.380;2022-12-07T06:32:06;50.77;;;19.20;;
6693;SDS011;3384;42.628;23.380;2022-12-07T06:34:34;35.93;;;20.10;;
6693;SDS011;3384;42.628;23.380;2022-12-07T06:37:01;38.40;;;20.37;;
6693;SDS011;3384;42.628;23.380;2022-12-07T06:39:28;44.10;;;21.33;;
6693;SDS011;3384;42.628;23.380;2022-12-07T06:41:55;36.00;;;21.43;;
6693;SDS011;3384;42.628;23.380;2022-12-07T06:44:22;36.27;;;21.63;;
6693;SDS011;3384;42.628;23.380;2022-12-07T06:46:50;36.67;;;20.10;;
6693;SDS011;3384;42.628;23.380;2022-12-07T06:49:19;47.10;;;21.33;;
6693;SDS011;3384;42.628;23.380;2022-12-07T06:51:46;49.47;;;23.27;;
6693;SDS011;3384;42.628;23.380;2022-12-07T06:54:13;43.97;;;19.90;;
6693;SDS011;3384;42.628;23.380;2022-12-07T06:56:41;33.27;;;19.43;;
6693;SDS011;3384;42.628;23.380;2022-12-07T06:59:08;35.70;;;19.50;;
6693;SDS011;3384;42.628;23.380;2022-12-07T07:01:35;46.97;;;22.90;;
6693;SDS011;3384;42.628;23.380;2022-12-07T07:04:02;46.03;;;23.30;;
6693;SDS011;3384;42.628;23.380;2022-12-07T07:06:31;37.93;;;21.83;;
6693;SDS011;3384;42.628;23.380;2022-12-07T07:08:58;40.80;;;21.73;;
6693;SDS011;3384;42.628;23.380;2022-12-07T07:11:24;40.70;;;22.03;;
6693;SDS011;3384;42.628;23.380;2022-12-07T07:13:51;43.10;;;22.40;;
6693;SDS011;3384;42.628;23.380;2022-12-07T07:16:18;41.27;;;22.17;;
6693;SDS011;3384;42.628;23.380;2022-12-07T07:18:45;41.10;;;23.00;;
6693;SDS011;3384;42.628;23.380;2022-12-07T07:21:12;37.87;;;22.07;;
6693;SDS011;3384;42.628;23.380;2022-12-07T07:23:43;42.80;;;24.10;;
6693;SDS011;3384;42.628;23.380;2022-12-07T07:26:10;52.43;;;23.77;;
6693;SDS011;3384;42.628;23.380;2022-12-07T07:28:37;43.47;;;22.10;;
6693;SDS011;3384;42.628;23.380;2022-12-07T07:31:04;46.83;;;23.87;;
6693;SDS011;3384;42.628;23.380;2022-12-07T07:33:30;57.23;;;22.70;;
6693;SDS011;3384;42.628;23.380;2022-12-07T07:35:57;60.20;;;24.20;;
6693;SDS011;3384;42.628;23.380;2022-12-07T07:38:24;51.67;;;22.80;;
6693;SDS011;3384;42.628;23.380;2022-12-07T07:40:52;53.77;;;22.10;;
6693;SDS011;3384;42.628;23.380;2022-12-07T07:43:19;48.60;;;21.70;;
6693;SDS011;3384;42.628;23.380;2022-12-07T07:45:48;55.33;;;28.30;;
6693;SDS011;3384;42.628;23.380;2022-12-07T07:48:15;54.33;;;23.97;;
6693;SDS011;3384;42.628;23.380;2022-12-07T07:50:43;51.53;;;21.63;;
6693;SDS011;3384;42.628;23.380;2022-12-07T07:53:10;38.37;;;21.90;;
6693;SDS011;3384;42.628;23.380;2022-12-07T07:55:37;46.40;;;23.70;;
6693;SDS011;3384;42.628;23.380;2022-12-07T07:58:05;48.57;;;25.83;;
6693;SDS011;3384;42.628;23.380;2022-12-07T08:00:32;63.00;;;22.93;;
6693;SDS011;3384;42.628;23.380;2022-12-07T08:02:59;59.20;;;24.70;;
6693;SDS011;3384;42.628;23.380;2022-12-07T08:05:25;41.70;;;23.60;;
6693;SDS011;3384;42.628;23.380;2022-12-07T08:07:52;42.73;;;22.40;;
6693;SDS011;3384;42.628;23.380;2022-12-07T08:10:19;42.07;;;23.40;;
6693;SDS011;3384;42.628;23.380;2022-12-07T08:12:46;41.00;;;22.50;;
6693;SDS011;3384;42.628;23.380;2022-12-07T08:15:31;50.73;;;23.33;;
6693;SDS011;3384;42.628;23.380;2022-12-07T08:17:58;39.40;;;21.20;;
6693;SDS011;3384;42.628;23.380;2022-12-07T08:20:25;42.07;;;21.23;;
6693;SDS011;3384;42.628;23.380;2022-12-07T08:22:52;37.17;;;20.03;;
6693;SDS011;3384;42.628;23.380;2022-12-07T08:25:19;40.10;;;21.10;;
6693;SDS011;3384;42.628;23.380;2022-12-07T08:27:47;52.43;;;27.80;;
6693;SDS011;3384;42.628;23.380;2022-12-07T08:30:14;43.57;;;22.70;;
6693;SDS011;3384;42.628;23.380;2022-12-07T08:32:43;41.90;;;22.73;;
6693;SDS011;3384;42.628;23.380;2022-12-07T08:35:10;36.03;;;21.40;;
6693;SDS011;3384;42.628;23.380;2022-12-07T08:37:38;38.47;;;22.30;;
6693;SDS011;3384;42.628;23.380;2022-12-07T08:40:05;38.27;;;21.67;;
6693;SDS011;3384;42.628;23.380;2022-12-07T08:42:34;46.10;;;23.17;;
6693;SDS011;3384;42.628;23.380;2022-12-07T08:45:05;38.20;;;23.33;;
6693;SDS011;3384;42.628;23.380;2022-12-07T08:47:33;40.10;;;19.80;;
6693;SDS011;3384;42.628;23.380;2022-12-07T08:50:03;36.87;;;20.70;;
6693;SDS011;3384;42.628;23.380;2022-12-07T08:52:32;39.73;;;22.50;;
6693;SDS011;3384;42.628;23.380;2022-12-07T08:55:01;40.90;;;22.17;;
6693;SDS011;3384;42.628;23.380;2022-12-07T08:57:29;37.97;;;20.30;;
6693;SDS011;3384;42.628;23.380;2022-12-07T08:59:59;44.30;;;21.83;;
6693;SDS011;3384;42.628;23.380;2022-12-07T09:02:25;44.50;;;22.60;;
6693;SDS011;3384;42.628;23.380;2022-12-07T09:04:52;45.37;;;20.67;;
6693;SDS011;3384;42.628;23.380;2022-12-07T09:07:21;41.23;;;23.40;;
6693;SDS011;3384;42.628;23.380;2022-12-07T09:09:47;45.70;;;21.50;;
6693;SDS011;3384;42.628;23.380;2022-12-07T09:12:14;40.00;;;20.73;;
6693;SDS011;3384;42.628;23.380;2022-12-07T09:14:41;35.07;;;19.47;;
6693;SDS011;3384;42.628;23.380;2022-12-07T09:17:08;41.83;;;20.87;;
6693;SDS011;3384;42.628;23.380;2022-12-07T09:19:36;34.30;;;20.23;;
6693;SDS011;3384;42.628;23.380;2022-12-07T09:22:04;36.13;;;19.97;;
6693;SDS011;3384;42.628;23.380;2022-12-07T09:24:32;38.60;;;20.40;;
6693;SDS011;3384;42.628;23.380;2022-12-07T09:26:59;53.77;;;21.50;;
6693;SDS011;3384;42.628;23.380;2022-12-07T09:29:26;37.07;;;19.43;;
6693;SDS011;3384;42.628;23.380;2022-12-07T09:31:53;39.97;;;21.07;;
6693;SDS011;3384;42.628;23.380;2022-12-07T09:34:20;36.40;;;19.00;;
6693;SDS011;3384;42.628;23.380;2022-12-07T09:36:47;33.50;;;19.70;;
6693;SDS011;3384;42.628;23.380;2022-12-07T09:39:14;41.57;;;19.47;;
6693;SDS011;3384;42.628;23.380;2022-12-07T09:41:42;34.67;;;18.90;;
6693;SDS011;3384;42.628;23.380;2022-12-07T09:44:12;45.80;;;19.50;;
6693;SDS011;3384;42.628;23.380;2022-12-07T09:46:44;46.13;;;20.67;;
6693;SDS011;3384;42.628;23.380;2022-12-07T09:49:12;44.07;;;19.40;;
6693;SDS011;3384;42.628;23.380;2022-12-07T09:51:44;39.47;;;20.17;;
6693;SDS011;3384;42.628;23.380;2022-12-07T09:54:12;35.70;;;20.73;;
6693;SDS011;3384;42.628;23.380;2022-12-07T09:56:40;35.60;;;20.77;;
6693;SDS011;3384;42.628;23.380;2022-12-07T09:59:12;34.00;;;18.87;;
6693;SDS011;3384;42.628;23.380;2022-12-07T10:01:42;33.33;;;18.63;;
6693;SDS011;3384;42.628;23.380;2022-12-07T10:04:11;47.80;;;19.30;;
6693;SDS011;3384;42.628;23.380;2022-12-07T10:06:41;32.80;;;19.40;;
6693;SDS011;3384;42.628;23.380;2022-12-07T10:09:09;36.23;;;18.47;;
6693;SDS011;3384;42.628;23.380;2022-12-07T10:14:27;39.73;;;19.40;;
6693;SDS011;3384;42.628;23.380;2022-12-07T10:16:55;51.27;;;19.13;;
6693;SDS011;3384;42.628;23.380;2022-12-07T10:19:24;32.63;;;17.97;;
6693;SDS011;3384;42.628;23.380;2022-12-07T10:21:59;38.13;;;20.33;;
6693;SDS011;3384;42.628;23.380;2022-12-07T10:24:28;34.10;;;17.60;;
6693;SDS011;3384;42.628;23.380;2022-12-07T10:26:55;25.87;;;16.07;;
6693;SDS011;3384;42.628;23.380;2022-12-07T10:29:24;29.53;;;17.30;;
6693;SDS011;3384;42.628;23.380;2022-12-07T10:31:57;32.03;;;17.93;;
6693;SDS011;3384;42.628;23.380;2022-12-07T10:34:26;31.20;;;18.30;;
6693;SDS011;3384;42.628;23.380;2022-12-07T10:37:06;41.40;;;18.40;;
6693;SDS011;3384;42.628;23.380;2022-12-07T10:39:41;26.50;;;16.10;;
6693;SDS011;3384;42.628;23.380;2022-12-07T10:42:15;30.83;;;16.50;;
6693;SDS011;3384;42.628;23.380;2022-12-07T10:44:45;24.80;;;16.40;;
6693;SDS011;3384;42.628;23.380;2022-12-07T10:47:21;40.03;;;16.50;;
6693;SDS011;3384;42.628;23.380;2022-12-07T10:59:12;31.63;;;16.70;;
6693;SDS011;3384;42.628;23.380;2022-12-07T11:01:57;37.50;;;16.90;;
6693;SDS011;3384;42.628;23.380;2022-12-07T11:04:35;29.67;;;16.10;;
6693;SDS011;3384;42.628;23.380;2022-12-07T11:07:10;33.80;;;17.57;;
6693;SDS011;3384;42.628;23.380;2022-12-07T11:09:54;33.90;;;16.40;;
6693;SDS011;3384;42.628;23.380;2022-12-07T11:12:31;38.43;;;17.67;;
6693;SDS011;3384;42.628;23.380;2022-12-07T11:15:10;25.10;;;16.70;;
6693;SDS011;3384;42.628;23.380;2022-12-07T11:17:45;29.17;;;17.77;;
6693;SDS011;3384;42.628;23.380;2022-12-07T11:20:29;35.40;;;17.37;;
6693;SDS011;3384;42.628;23.380;2022-12-07T11:23:04;35.87;;;19.30;;
6693;SDS011;3384;42.628;23.380;2022-12-07T11:25:41;30.77;;;17.30;;
6693;SDS011;3384;42.628;23.380;2022-12-07T11:28:18;38.90;;;18.10;;
6693;SDS011;3384;42.628;23.380;2022-12-07T11:30:57;27.50;;;17.07;;
6693;SDS011;3384;42.628;23.380;2022-12-07T11:33:36;35.90;;;17.57;;
6693;SDS011;3384;42.628;23.380;2022-12-07T11:36:14;32.70;;;18.90;;
6693;SDS011;3384;42.628;23.380;2022-12-07T11:38:52;35.27;;;18.90;;
6693;SDS011;3384;42.628;23.380;2022-12-07T11:41:22;40.50;;;21.07;;
6693;SDS011;3384;42.628;23.380;2022-12-07T11:43:54;41.53;;;19.90;;
6693;SDS011;3384;42.628;23.380;2022-12-07T11:46:25;36.07;;;18.20;;
6693;SDS011;3384;42.628;23.380;2022-12-07T11:49:01;33.30;;;19.20;;
6693;SDS011;3384;42.628;23.380;2022-12-07T11:51:35;26.37;;;18.17;;
6693;SDS011;3384;42.628;23.380;2022-12-07T11:54:09;35.40;;;18.87;;
6693;SDS011;3384;42.628;23.380;2022-12-07T11:56:41;32.77;;;17.63;;
6693;SDS011;3384;42.628;23.380;2022-12-07T11:59:11;49.87;;;18.00;;
6693;SDS011;3384;42.628;23.380;2022-12-07T12:01:45;38.23;;;17.20;;
6693;SDS011;3384;42.628;23.380;2022-12-07T12:04:29;30.00;;;18.43;;
6693;SDS011;3384;42.628;23.380;2022-12-07T12:07:00;40.50;;;18.50;;
6693;SDS011;3384;42.628;23.380;2022-12-07T12:09:28;41.53;;;19.40;;
6693;SDS011;3384;42.628;23.380;2022-12-07T12:15:08;34.50;;;17.70;;
6693;SDS011;3384;42.628;23.380;2022-12-07T12:18:08;48.90;;;19.07;;
6693;SDS011;3384;42.628;23.380;2022-12-07T12:20:48;35.70;;;18.30;;
6693;SDS011;3384;42.628;23.380;2022-12-07T12:23:19;40.27;;;18.63;;
6693;SDS011;3384;42.628;23.380;2022-12-07T12:25:49;40.37;;;18.47;;
6693;SDS011;3384;42.628;23.380;2022-12-07T12:28:20;33.70;;;16.87;;
6693;SDS011;3384;42.628;23.380;2022-12-07T12:31:06;43.03;;;18.20;;
6693;SDS011;3384;42.628;23.380;2022-12-07T12:33:37;42.57;;;17.50;;
6693;SDS011;3384;42.628;23.380;2022-12-07T12:36:19;49.53;;;17.60;;
6693;SDS011;3384;42.628;23.380;2022-12-07T12:38:50;38.43;;;18.90;;
6693;SDS011;3384;42.628;23.380;2022-12-07T12:41:55;37.30;;;17.90;;
6693;SDS011;3384;42.628;23.380;2022-12-07T12:50:30;34.33;;;19.17;;
6693;SDS011;3384;42.628;23.380;2022-12-07T12:53:04;35.60;;;18.57;;
6693;SDS011;3384;42.628;23.380;2022-12-07T12:56:03;32.43;;;17.93;;
6693;SDS011;3384;42.628;23.380;2022-12-07T13:01:48;37.73;;;20.20;;
6693;SDS011;3384;42.628;23.380;2022-12-07T13:04:30;37.93;;;17.10;;
6693;SDS011;3384;42.628;23.380;2022-12-07T13:07:08;43.20;;;18.97;;
6693;SDS011;3384;42.628;23.380;2022-12-07T13:09:38;30.07;;;17.20;;
6693;SDS011;3384;42.628;23.380;2022-12-07T13:12:14;48.90;;;22.00;;
6693;SDS011;3384;42.628;23.380;2022-12-07T13:14:43;35.13;;;17.80;;
6693;SDS011;3384;42.628;23.380;2022-12-07T13:20:44;46.10;;;17.87;;
6693;SDS011;3384;42.628;23.380;2022-12-07T13:23:13;33.13;;;16.23;;
6693;SDS011;3384;42.628;23.380;2022-12-07T13:28:45;22.90;;;13.40;;
6693;SDS011;3384;42.628;23.380;2022-12-07T13:31:22;35.20;;;13.20;;
6693;SDS011;3384;42.628;23.380;2022-12-07T13:33:56;24.80;;;13.37;;
6693;SDS011;3384;42.628;23.380;2022-12-07T13:36:24;29.17;;;16.97;;
6693;SDS011;3384;42.628;23.380;2022-12-07T13:38:53;26.33;;;14.17;;
6693;SDS011;3384;42.628;23.380;2022-12-07T13:41:22;27.60;;;16.10;;
6693;SDS011;3384;42.628;23.380;2022-12-07T13:43:53;24.47;;;14.40;;
6693;SDS011;3384;42.628;23.380;2022-12-07T13:46:27;28.63;;;15.77;;
6693;SDS011;3384;42.628;23.380;2022-12-07T13:49:15;20.93;;;14.30;;
6693;SDS011;3384;42.628;23.380;2022-12-07T13:51:47;28.10;;;15.40;;
6693;SDS011;3384;42.628;23.380;2022-12-07T13:54:16;22.20;;;15.57;;
6693;SDS011;3384;42.628;23.380;2022-12-07T13:56:46;32.40;;;16.00;;
6693;SDS011;3384;42.628;23.380;2022-12-07T13:59:26;28.07;;;14.90;;
6693;SDS011;3384;42.628;23.380;2022-12-07T14:01:53;29.20;;;15.80;;
6693;SDS011;3384;42.628;23.380;2022-12-07T14:04:31;29.33;;;14.77;;
6693;SDS011;3384;42.628;23.380;2022-12-07T14:07:00;31.00;;;13.70;;
6693;SDS011;3384;42.628;23.380;2022-12-07T14:09:53;32.93;;;15.80;;
6693;SDS011;3384;42.628;23.380;2022-12-07T14:12:20;23.87;;;14.77;;
6693;SDS011;3384;42.628;23.380;2022-12-07T14:14:49;44.07;;;15.67;;
6693;SDS011;3384;42.628;23.380;2022-12-07T14:17:17;41.50;;;15.67;;
6693;SDS011;3384;42.628;23.380;2022-12-07T14:19:48;25.63;;;14.33;;
6693;SDS011;3384;42.628;23.380;2022-12-07T14:22:24;27.23;;;13.50;;
6693;SDS011;3384;42.628;23.380;2022-12-07T14:25:15;36.53;;;14.50;;
6693;SDS011;3384;42.628;23.380;2022-12-07T14:27:48;24.70;;;13.07;;
6693;SDS011;3384;42.628;23.380;2022-12-07T14:30:19;22.33;;;12.13;;
6693;SDS011;3384;42.628;23.380;2022-12-07T14:32:52;21.43;;;12.73;;
6693;SDS011;3384;42.628;23.380;2022-12-07T14:35:20;29.27;;;12.93;;
6693;SDS011;3384;42.628;23.380;2022-12-07T14:37:48;32.00;;;13.97;;
6693;SDS011;3384;42.628;23.380;2022-12-07T14:40:16;29.73;;;13.50;;
6693;SDS011;3384;42.628;23.380;2022-12-07T14:42:44;37.37;;;13.93;;
6693;SDS011;3384;42.628;23.380;2022-12-07T14:45:13;28.73;;;14.30;;
6693;SDS011;3384;42.628;23.380;2022-12-07T14:47:43;20.80;;;13.57;;
6693;SDS011;3384;42.628;23.380;2022-12-07T14:50:11;22.23;;;12.70;;
6693;SDS011;3384;42.628;23.380;2022-12-07T14:52:39;18.20;;;12.70;;
6693;SDS011;3384;42.628;23.380;2022-12-07T14:55:12;24.57;;;13.50;;
6693;SDS011;3384;42.628;23.380;2022-12-07T14:57:42;18.13;;;13.90;;
6693;SDS011;3384;42.628;23.380;2022-12-07T15:00:13;27.50;;;13.80;;
6693;SDS011;3384;42.628;23.380;2022-12-07T15:02:40;28.87;;;14.63;;
6693;SDS011;3384;42.628;23.380;2022-12-07T15:05:09;23.40;;;14.30;;
6693;SDS011;3384;42.628;23.380;2022-12-07T15:07:35;24.33;;;14.57;;
6693;SDS011;3384;42.628;23.380;2022-12-07T15:10:03;34.67;;;14.47;;
6693;SDS011;3384;42.628;23.380;2022-12-07T15:12:31;46.73;;;17.27;;
6693;SDS011;3384;42.628;23.380;2022-12-07T15:14:57;38.40;;;15.73;;
6693;SDS011;3384;42.628;23.380;2022-12-07T15:17:26;37.13;;;16.97;;
6693;SDS011;3384;42.628;23.380;2022-12-07T15:19:53;30.27;;;17.13;;
6693;SDS011;3384;42.628;23.380;2022-12-07T15:22:21;37.93;;;17.60;;
6693;SDS011;3384;42.628;23.380;2022-12-07T15:24:48;45.50;;;17.80;;